createdAt,value
2022-10-28T00:01:43.749Z,19.89
2022-10-28T00:04:13.862Z,19.93
2022-10-28T00:06:42.484Z,19.86
2022-10-28T00:09:12.278Z,19.99
2022-10-28T00:11:43.874Z,19.91
2022-10-28T00:14:13.910Z,19.70
2022-10-28T00:16:42.820Z,19.91
2022-10-28T00:19:15.021Z,19.91
2022-10-28T00:21:45.580Z,19.88
2022-10-28T00:24:15.549Z,19.86
2022-10-28T00:26:46.211Z,19.86
2022-10-28T00:29:17.006Z,19.73
2022-10-28T00:31:45.970Z,19.68
2022-10-28T00:34:18.099Z,19.66
2022-10-28T00:36:48.039Z,19.81
2022-10-28T00:39:18.503Z,19.75
2022-10-28T00:41:49.929Z,19.85
2022-10-28T00:44:53.620Z,19.95
2022-10-28T00:47:33.415Z,19.95
2022-10-28T00:50:14.439Z,19.67
2022-10-28T00:52:47.264Z,19.82
2022-10-28T00:55:19.359Z,19.80
2022-10-28T00:57:48.659Z,19.84
2022-10-28T01:00:20.240Z,19.72
2022-10-28T01:02:50.564Z,19.84
2022-10-28T01:05:24.329Z,19.73
2022-10-28T01:07:55.722Z,19.84
2022-10-28T01:10:30.649Z,19.67
2022-10-28T01:13:12.591Z,19.81
2022-10-28T01:15:50.764Z,19.66
2022-10-28T01:18:30.349Z,19.83
2022-10-28T01:21:28.391Z,19.65
2022-10-28T01:24:19.479Z,19.81
2022-10-28T01:27:19.905Z,19.75
2022-10-28T01:30:12.579Z,19.66
2022-10-28T01:32:57.019Z,19.75
2022-10-28T01:35:32.294Z,19.79
2022-10-28T01:38:19.122Z,19.74
2022-10-28T01:40:54.559Z,19.78
2022-10-28T01:43:28.420Z,19.60
2022-10-28T01:46:04.979Z,19.79
2022-10-28T01:48:41.661Z,19.87
2022-10-28T01:51:15.454Z,19.65
2022-10-28T01:53:49.950Z,19.77
2022-10-28T01:56:23.583Z,19.79
2022-10-28T01:58:55.109Z,19.62
2022-10-28T02:01:25.339Z,19.62
2022-10-28T02:03:56.399Z,19.87
2022-10-28T02:06:28.944Z,19.59
2022-10-28T02:09:15.211Z,19.68
2022-10-28T02:12:12.110Z,19.73
2022-10-28T02:15:03.575Z,19.68
2022-10-28T02:17:46.469Z,19.77
2022-10-28T02:20:28.966Z,19.60
2022-10-28T02:23:06.370Z,19.70
2022-10-28T02:25:39.259Z,19.63
2022-10-28T02:30:46.459Z,19.62
2022-10-28T02:33:21.150Z,19.51
2022-10-28T02:35:55.090Z,19.79
2022-10-28T02:38:36.057Z,19.71
2022-10-28T02:41:15.191Z,19.74
2022-10-28T02:43:46.744Z,19.73
2022-10-28T02:46:18.561Z,19.74
2022-10-28T02:48:50.440Z,19.93
2022-10-28T02:51:28.187Z,19.78
2022-10-28T02:54:04.160Z,19.71
2022-10-28T02:56:37.160Z,19.75
2022-10-28T02:59:11.442Z,19.89
2022-10-28T03:01:40.851Z,19.77
2022-10-28T03:04:10.802Z,19.98
2022-10-28T03:06:41.619Z,19.88
2022-10-28T03:09:12.639Z,19.87
2022-10-28T03:11:46.339Z,20.02
2022-10-28T03:14:18.099Z,19.96
2022-10-28T03:16:48.379Z,19.75
2022-10-28T03:19:16.932Z,19.67
2022-10-28T03:21:47.499Z,19.84
2022-10-28T03:24:19.070Z,19.74
2022-10-28T03:26:47.919Z,19.67
2022-10-28T03:29:16.614Z,19.67
2022-10-28T03:31:46.079Z,19.78
2022-10-28T03:34:17.119Z,19.74
2022-10-28T03:36:48.369Z,19.80
2022-10-28T03:39:17.219Z,19.81
2022-10-28T03:41:47.685Z,19.60
2022-10-28T03:44:17.569Z,19.64
2022-10-28T03:46:48.000Z,19.72
2022-10-28T03:49:16.661Z,19.75
2022-10-28T03:51:47.200Z,19.77
2022-10-28T03:54:15.939Z,19.62
2022-10-28T03:56:44.730Z,19.71
2022-10-28T03:59:19.174Z,19.79
2022-10-28T04:01:51.429Z,19.87
2022-10-28T04:04:25.031Z,19.77
2022-10-28T04:07:00.932Z,19.88
2022-10-28T04:09:31.209Z,19.67
2022-10-28T04:12:00.922Z,19.72
2022-10-28T04:14:29.970Z,19.74
2022-10-28T04:17:02.980Z,19.55
2022-10-28T04:19:34.321Z,19.57
2022-10-28T04:22:05.010Z,19.75
2022-10-28T04:24:35.919Z,19.59
2022-10-28T04:27:06.869Z,19.65
2022-10-28T04:29:37.119Z,19.60
2022-10-28T04:32:06.065Z,19.61
2022-10-28T04:34:37.628Z,19.72
2022-10-28T04:37:07.804Z,19.80
2022-10-28T04:39:36.521Z,19.60
2022-10-28T04:42:09.330Z,19.50
2022-10-28T04:44:42.310Z,19.68
2022-10-28T04:47:16.250Z,19.45
2022-10-28T04:49:47.855Z,19.47
2022-10-28T04:52:18.670Z,19.41
2022-10-28T04:54:47.530Z,19.61
2022-10-28T04:57:16.490Z,19.62
2022-10-28T04:59:50.501Z,19.71
2022-10-28T05:02:19.356Z,19.52
2022-10-28T05:04:48.169Z,19.45
2022-10-28T05:07:36.810Z,19.38
2022-10-28T05:10:08.635Z,19.40
2022-10-28T05:12:40.429Z,19.55
2022-10-28T05:15:15.915Z,19.50
2022-10-28T05:17:46.171Z,19.51
2022-10-28T05:20:18.364Z,19.44
2022-10-28T05:22:53.311Z,19.52
2022-10-28T05:25:23.014Z,19.31
2022-10-28T05:27:52.199Z,19.55
2022-10-28T05:30:21.604Z,19.42
2022-10-28T05:32:52.971Z,19.41
2022-10-28T05:35:24.251Z,19.34
2022-10-28T05:37:54.531Z,19.24
2022-10-28T05:40:23.270Z,19.31
2022-10-28T05:42:56.146Z,19.20
2022-10-28T05:45:26.642Z,19.17
2022-10-28T05:47:58.139Z,19.26
2022-10-28T05:50:26.892Z,19.21
2022-10-28T05:53:00.510Z,19.34
2022-10-28T05:55:32.702Z,19.11
2022-10-28T05:58:01.609Z,19.25
2022-10-28T06:00:30.520Z,19.41
2022-10-28T06:03:12.497Z,19.21
2022-10-28T06:05:44.160Z,19.35
2022-10-28T06:08:15.759Z,19.40
2022-10-28T06:10:56.883Z,19.11
2022-10-28T06:13:29.761Z,19.29
2022-10-28T06:15:58.787Z,19.07
2022-10-28T06:18:30.542Z,19.14
2022-10-28T06:20:59.945Z,19.19
2022-10-28T06:23:32.875Z,19.24
2022-10-28T06:26:07.898Z,19.09
2022-10-28T06:28:58.362Z,19.28
2022-10-28T06:31:32.411Z,19.02
2022-10-28T06:34:01.405Z,19.26
2022-10-28T06:36:30.136Z,19.03
2022-10-28T06:39:03.377Z,18.99
2022-10-28T06:41:35.706Z,19.15
2022-10-28T06:44:05.994Z,19.03
2022-10-28T06:46:36.899Z,19.04
2022-10-28T06:49:13.890Z,18.92
2022-10-28T06:51:57.962Z,18.96
2022-10-28T06:54:38.975Z,18.92
2022-10-28T06:57:12.649Z,19.06
2022-10-28T06:59:43.769Z,18.96
2022-10-28T07:02:12.937Z,19.05
2022-10-28T07:04:42.513Z,18.92
2022-10-28T07:07:11.964Z,18.97
2022-10-28T07:09:43.448Z,18.88
2022-10-28T07:12:12.389Z,18.73
2022-10-28T07:14:41.601Z,18.76
2022-10-28T07:17:10.333Z,18.80
2022-10-28T07:19:40.007Z,18.70
2022-10-28T07:22:09.736Z,18.89
2022-10-28T07:24:38.540Z,18.79
2022-10-28T07:27:13.311Z,18.75
2022-10-28T07:29:42.490Z,18.57
2022-10-28T07:32:11.746Z,18.69
2022-10-28T07:34:40.713Z,18.85
2022-10-28T07:37:11.755Z,18.67
2022-10-28T07:39:40.807Z,18.70
2022-10-28T07:42:13.384Z,18.67
2022-10-28T07:44:52.304Z,18.78
2022-10-28T07:47:23.463Z,18.59
2022-10-28T07:49:54.804Z,18.61
2022-10-28T07:52:24.453Z,18.64
2022-10-28T07:54:55.772Z,18.65
2022-10-28T07:57:25.903Z,18.59
2022-10-28T07:59:54.697Z,18.71
2022-10-28T08:02:28.243Z,18.80
2022-10-28T08:04:57.872Z,18.74
2022-10-28T08:07:26.855Z,18.94
2022-10-28T08:09:55.719Z,18.88
2022-10-28T08:12:28.604Z,19.06
2022-10-28T08:14:58.459Z,18.68
2022-10-28T08:17:29.619Z,18.79
2022-10-28T08:19:58.502Z,18.92
2022-10-28T08:22:27.511Z,18.98
2022-10-28T08:24:58.709Z,18.98
2022-10-28T08:27:32.449Z,18.94
2022-10-28T08:30:03.188Z,19.00
2022-10-28T08:32:35.859Z,19.08
2022-10-28T08:35:06.350Z,18.98
2022-10-28T08:37:35.847Z,18.84
2022-10-28T08:40:05.409Z,18.82
2022-10-28T08:42:42.174Z,18.88
2022-10-28T08:45:22.601Z,18.81
2022-10-28T08:48:05.206Z,18.76
2022-10-28T08:50:38.922Z,18.79
2022-10-28T08:53:16.534Z,18.75
2022-10-28T08:55:49.103Z,18.91
2022-10-28T08:58:24.478Z,18.95
2022-10-28T09:00:55.359Z,18.74
2022-10-28T09:03:27.684Z,18.73
2022-10-28T09:06:03.760Z,18.88
2022-10-28T09:08:38.843Z,18.76
2022-10-28T09:11:31.134Z,18.56
2022-10-28T09:14:16.785Z,18.75
2022-10-28T09:16:49.529Z,18.69
2022-10-28T09:19:35.334Z,18.63
2022-10-28T09:22:25.567Z,18.61
2022-10-28T09:24:57.645Z,18.80
2022-10-28T09:27:51.800Z,18.71
2022-10-28T09:30:31.965Z,18.97
2022-10-28T09:33:18.844Z,18.85
2022-10-28T09:35:50.275Z,18.79
2022-10-28T09:38:32.284Z,18.92
2022-10-28T09:41:09.465Z,18.84
2022-10-28T09:43:45.654Z,18.75
2022-10-28T09:46:18.904Z,18.81
2022-10-28T09:48:52.914Z,18.84
2022-10-28T09:51:31.055Z,18.85
2022-10-28T09:54:02.677Z,19.07
2022-10-28T09:56:36.487Z,18.95
2022-10-28T09:59:06.352Z,18.87
2022-10-28T10:01:43.159Z,18.91
2022-10-28T10:04:19.905Z,19.12
2022-10-28T10:06:54.605Z,19.14
2022-10-28T10:09:27.626Z,19.14
2022-10-28T10:12:11.156Z,19.02
2022-10-28T10:14:44.595Z,19.21
2022-10-28T10:17:21.217Z,19.02
2022-10-28T10:20:08.546Z,19.04
2022-10-28T10:22:40.565Z,19.11
2022-10-28T10:25:27.747Z,19.18
2022-10-28T10:28:01.299Z,19.27
2022-10-28T10:30:34.835Z,19.15
2022-10-28T10:33:06.447Z,19.30
2022-10-28T10:35:37.436Z,19.41
2022-10-28T10:38:08.737Z,19.40
2022-10-28T10:40:51.479Z,19.40
2022-10-28T10:43:25.497Z,19.40
2022-10-28T10:46:02.406Z,19.50
2022-10-28T10:48:36.734Z,19.52
2022-10-28T10:51:14.081Z,19.62
2022-10-28T10:53:43.248Z,19.60
2022-10-28T10:56:16.046Z,19.49
2022-10-28T10:58:54.206Z,19.60
2022-10-28T11:01:28.844Z,19.38
2022-10-28T11:04:02.213Z,19.34
2022-10-28T11:06:33.846Z,19.36
2022-10-28T11:09:05.143Z,19.55
2022-10-28T11:11:35.841Z,19.45
2022-10-28T11:14:08.853Z,19.54
2022-10-28T11:16:50.834Z,19.53
2022-10-28T11:19:28.165Z,19.55
2022-10-28T11:22:08.047Z,19.51
2022-10-28T11:25:21.166Z,19.57
2022-10-28T11:28:04.010Z,19.72
2022-10-28T11:30:46.020Z,19.60
2022-10-28T11:33:32.590Z,19.75
2022-10-28T11:36:17.667Z,19.68
2022-10-28T11:39:02.298Z,19.62
2022-10-28T11:41:42.290Z,19.93
2022-10-28T11:44:29.233Z,19.70
2022-10-28T11:47:10.477Z,19.75
2022-10-28T11:50:03.906Z,19.75
2022-10-28T11:52:50.378Z,19.84
2022-10-28T11:55:32.727Z,19.83
2022-10-28T11:58:11.547Z,19.87
2022-10-28T12:00:53.397Z,19.81
2022-10-28T12:03:47.688Z,20.05
2022-10-28T12:06:23.517Z,20.01
2022-10-28T12:09:09.168Z,19.73
2022-10-28T12:14:34.548Z,20.04
2022-10-28T12:17:13.406Z,19.88
2022-10-28T12:19:47.367Z,19.95
2022-10-28T12:22:23.617Z,20.01
2022-10-28T12:24:55.705Z,19.95
2022-10-28T12:27:42.399Z,20.00
2022-10-28T12:30:21.317Z,19.91
2022-10-28T12:32:57.232Z,19.94
2022-10-28T12:35:32.472Z,19.93
2022-10-28T12:38:10.097Z,20.00
2022-10-28T12:40:52.809Z,19.99
2022-10-28T12:43:26.677Z,20.03
2022-10-28T12:45:57.980Z,20.01
2022-10-28T12:48:40.127Z,20.01
2022-10-28T12:51:16.517Z,20.06
2022-10-28T12:53:57.586Z,19.96
2022-10-28T12:56:37.983Z,20.06
2022-10-28T12:59:24.650Z,19.88
2022-10-28T13:01:54.994Z,20.05
2022-10-28T13:04:25.584Z,19.94
2022-10-28T13:07:23.726Z,20.05
2022-10-28T13:10:03.507Z,20.06
2022-10-28T13:13:01.748Z,20.08
2022-10-28T13:16:04.043Z,19.93
2022-10-28T13:19:01.539Z,20.01
2022-10-28T13:21:46.609Z,19.85
2022-10-28T13:24:23.396Z,20.04
2022-10-28T13:26:55.656Z,20.04
2022-10-28T13:29:33.292Z,20.04
2022-10-28T13:32:06.527Z,19.94
2022-10-28T13:34:38.242Z,19.95
2022-10-28T13:37:22.183Z,19.92
2022-10-28T13:39:51.274Z,19.89
2022-10-28T13:42:47.146Z,19.82
2022-10-28T13:45:48.715Z,20.08
2022-10-28T13:48:56.806Z,20.04
2022-10-28T13:51:48.540Z,19.96
2022-10-28T13:54:29.983Z,20.01
2022-10-28T13:57:07.648Z,20.03
2022-10-28T13:59:56.654Z,19.91
2022-10-28T14:02:35.498Z,19.95
2022-10-28T14:05:09.951Z,19.88
2022-10-28T14:07:57.051Z,19.84
2022-10-28T14:10:30.695Z,19.91
2022-10-28T14:13:10.070Z,19.66
2022-10-28T14:15:43.234Z,19.70
2022-10-28T14:21:14.843Z,19.66
2022-10-28T14:24:16.273Z,19.94
2022-10-28T14:27:30.838Z,19.87
2022-10-28T14:30:25.423Z,19.79
2022-10-28T14:33:22.619Z,19.80
2022-10-28T14:36:13.043Z,19.68
2022-10-28T14:39:05.733Z,19.67
2022-10-28T14:41:58.172Z,19.73
2022-10-28T14:44:59.901Z,19.79
2022-10-28T14:47:51.645Z,19.94
2022-10-28T14:50:25.062Z,19.77
2022-10-28T14:52:59.002Z,19.77
2022-10-28T14:55:31.392Z,19.73
2022-10-28T14:58:25.811Z,19.69
2022-10-28T15:01:07.216Z,19.81
2022-10-28T15:03:36.661Z,19.78
2022-10-28T15:06:26.061Z,19.73
2022-10-28T15:08:56.292Z,19.79
2022-10-28T15:11:25.753Z,19.84
2022-10-28T15:14:14.242Z,19.79
2022-10-28T15:16:53.041Z,19.73
2022-10-28T15:19:23.360Z,19.76
2022-10-28T15:22:21.414Z,19.81
2022-10-28T15:25:01.794Z,19.50
2022-10-28T15:27:32.462Z,19.70
2022-10-28T15:30:03.385Z,19.49
2022-10-28T15:32:34.280Z,19.67
2022-10-28T15:35:40.157Z,19.55
2022-10-28T15:38:36.313Z,19.71
2022-10-28T15:41:49.712Z,19.50
2022-10-28T15:44:31.061Z,19.80
2022-10-28T15:47:11.661Z,19.52
2022-10-28T15:49:42.166Z,19.65
2022-10-28T15:52:37.940Z,19.51
2022-10-28T15:58:40.430Z,19.55
2022-10-28T16:01:12.113Z,19.47
2022-10-28T16:03:47.506Z,19.61
2022-10-28T16:06:28.193Z,19.53
2022-10-28T16:09:06.899Z,19.71
2022-10-28T16:11:39.610Z,19.58
2022-10-28T16:14:30.671Z,19.64
2022-10-28T16:17:06.822Z,19.68
2022-10-28T16:19:39.874Z,19.49
2022-10-28T16:22:12.651Z,19.65
2022-10-28T16:24:41.872Z,19.43
2022-10-28T16:27:22.671Z,19.44
2022-10-28T16:29:52.004Z,19.39
2022-10-28T16:32:24.669Z,19.55
2022-10-28T16:34:54.979Z,19.53
2022-10-28T16:37:26.360Z,19.53
2022-10-28T16:39:55.684Z,19.53
2022-10-28T16:42:25.759Z,19.35
2022-10-28T16:45:06.100Z,19.50
2022-10-28T16:47:37.220Z,19.49
2022-10-28T16:50:08.439Z,19.35
2022-10-28T16:52:37.808Z,19.39
2022-10-28T16:55:17.209Z,19.41
2022-10-28T16:57:48.840Z,19.55
2022-10-28T17:00:18.100Z,19.45
2022-10-28T17:02:50.972Z,19.48
2022-10-28T17:05:23.629Z,19.49
2022-10-28T17:07:58.479Z,19.33
2022-10-28T17:10:28.470Z,19.22
2022-10-28T17:12:57.852Z,19.41
2022-10-28T17:15:26.659Z,19.20
2022-10-28T17:17:55.892Z,19.38
2022-10-28T17:20:28.559Z,19.39
2022-10-28T17:22:58.428Z,19.21
2022-10-28T17:25:27.558Z,19.39
2022-10-28T17:27:56.525Z,19.24
2022-10-28T17:30:27.052Z,19.32
2022-10-28T17:32:56.035Z,19.22
2022-10-28T17:35:26.181Z,19.28
2022-10-28T17:37:55.250Z,19.10
2022-10-28T17:40:26.670Z,19.12
2022-10-28T17:42:55.893Z,19.20
2022-10-28T17:45:26.844Z,19.26
2022-10-28T17:47:56.090Z,19.28
2022-10-28T17:50:28.301Z,19.31
2022-10-28T17:52:57.380Z,19.12
2022-10-28T17:55:26.454Z,19.10
2022-10-28T17:57:55.519Z,19.03
2022-10-28T18:00:29.469Z,19.20
2022-10-28T18:03:01.602Z,19.20
2022-10-28T18:05:40.112Z,19.14
2022-10-28T18:08:10.699Z,19.12
2022-10-28T18:10:43.530Z,19.01
2022-10-28T18:13:12.320Z,18.88
2022-10-28T18:15:43.045Z,19.02
2022-10-28T18:18:11.740Z,18.95
2022-10-28T18:20:41.891Z,19.00
2022-10-28T18:23:11.220Z,19.21
2022-10-28T18:25:40.027Z,19.20
2022-10-28T18:28:09.505Z,19.08
2022-10-28T18:30:38.500Z,19.02
2022-10-28T18:33:07.320Z,19.14
2022-10-28T18:35:38.988Z,19.16
2022-10-28T18:38:09.167Z,19.12
2022-10-28T18:40:46.873Z,19.17
2022-10-28T18:43:18.394Z,19.16
2022-10-28T18:45:48.960Z,19.14
2022-10-28T18:48:17.890Z,18.75
2022-10-28T18:50:57.890Z,19.00
2022-10-28T18:53:30.430Z,18.85
2022-10-28T18:56:02.675Z,18.90
2022-10-28T18:58:32.361Z,18.99
2022-10-28T19:01:16.082Z,18.96
2022-10-28T19:03:45.870Z,19.03
2022-10-28T19:06:16.752Z,18.89
2022-10-28T19:08:52.301Z,18.92
2022-10-28T19:11:23.471Z,18.91
2022-10-28T19:13:54.923Z,18.89
2022-10-28T19:16:26.731Z,19.15
2022-10-28T19:19:01.692Z,18.99
2022-10-28T19:21:31.112Z,19.03
2022-10-28T19:24:04.902Z,18.98
2022-10-28T19:26:35.500Z,19.01
2022-10-28T19:29:07.630Z,19.10
2022-10-28T19:31:49.881Z,18.95
2022-10-28T19:34:22.945Z,18.84
2022-10-28T19:36:52.720Z,18.85
2022-10-28T19:39:38.873Z,18.85
2022-10-28T19:42:07.442Z,19.10
2022-10-28T19:44:37.521Z,18.89
2022-10-28T19:47:06.321Z,18.73
2022-10-28T19:49:39.339Z,18.71
2022-10-28T19:52:22.801Z,18.77
2022-10-28T19:54:53.074Z,18.65
2022-10-28T19:57:23.773Z,18.81
2022-10-28T19:59:53.601Z,18.68
2022-10-28T20:02:33.348Z,18.57
2022-10-28T20:05:02.751Z,18.76
2022-10-28T20:07:31.422Z,18.82
2022-10-28T20:10:01.860Z,18.69
2022-10-28T20:12:33.612Z,18.86
2022-10-28T20:15:04.584Z,18.84
2022-10-28T20:17:33.898Z,18.90
2022-10-28T20:20:19.726Z,19.01
2022-10-28T20:23:05.662Z,18.93
2022-10-28T20:25:38.182Z,18.88
2022-10-28T20:28:10.140Z,19.09
2022-10-28T20:30:41.641Z,19.03
2022-10-28T20:33:11.080Z,18.89
2022-10-28T20:35:44.027Z,19.02
2022-10-28T20:38:13.153Z,18.95
2022-10-28T20:40:48.745Z,19.03
2022-10-28T20:43:21.091Z,19.24
2022-10-28T20:46:00.964Z,19.19
2022-10-28T20:48:31.138Z,19.09
2022-10-28T20:51:02.092Z,18.99
2022-10-28T20:53:39.252Z,19.15
2022-10-28T20:56:22.420Z,19.05
2022-10-28T20:58:55.286Z,19.39
2022-10-28T21:01:27.811Z,19.28
2022-10-28T21:04:00.963Z,19.23
2022-10-28T21:06:38.216Z,19.22
2022-10-28T21:09:09.804Z,19.29
2022-10-28T21:11:50.841Z,19.32
2022-10-28T21:14:27.061Z,19.27
2022-10-28T21:17:03.008Z,19.10
2022-10-28T21:19:33.014Z,19.45
2022-10-28T21:22:04.637Z,19.16
2022-10-28T21:24:45.870Z,19.30
2022-10-28T21:27:19.502Z,19.29
2022-10-28T21:29:49.720Z,19.15
2022-10-28T21:32:19.980Z,19.42
2022-10-28T21:35:02.271Z,19.35
2022-10-28T21:37:31.011Z,19.14
2022-10-28T21:40:01.058Z,19.27
2022-10-28T21:42:31.842Z,19.45
2022-10-28T21:45:11.893Z,19.37
2022-10-28T21:47:41.610Z,19.36
2022-10-28T21:50:15.721Z,19.30
2022-10-28T21:52:47.229Z,19.44
2022-10-28T21:55:20.932Z,19.26
2022-10-28T21:58:08.062Z,19.34
2022-10-28T22:00:36.872Z,19.34
2022-10-28T22:03:08.450Z,19.15
2022-10-28T22:05:37.430Z,19.42
2022-10-28T22:08:09.825Z,19.41
2022-10-28T22:10:38.961Z,19.32
2022-10-28T22:13:09.147Z,19.40
2022-10-28T22:15:38.230Z,19.16
2022-10-28T22:18:09.693Z,19.31
2022-10-28T22:20:38.332Z,19.38
2022-10-28T22:23:07.475Z,19.36
2022-10-28T22:25:36.353Z,19.26
2022-10-28T22:28:05.908Z,19.07
2022-10-28T22:30:36.110Z,19.10
2022-10-28T22:33:04.980Z,19.09
2022-10-28T22:35:35.869Z,19.20
2022-10-28T22:38:04.562Z,19.20
2022-10-28T22:40:36.730Z,19.33
2022-10-28T22:43:05.930Z,19.33
2022-10-28T22:45:42.150Z,19.27
2022-10-28T22:48:11.050Z,19.12
2022-10-28T22:50:41.171Z,19.34
2022-10-28T22:53:10.617Z,19.25
2022-10-28T22:55:44.670Z,18.99
2022-10-28T22:58:13.670Z,19.30
2022-10-28T23:00:44.571Z,18.99
2022-10-28T23:03:15.572Z,19.02
2022-10-28T23:05:45.040Z,19.02
2022-10-28T23:08:17.163Z,19.35
2022-10-28T23:10:46.330Z,19.27
2022-10-28T23:13:15.230Z,19.05
2022-10-28T23:15:45.786Z,19.24
2022-10-28T23:18:14.751Z,19.14
2022-10-28T23:20:43.470Z,19.25
2022-10-28T23:23:14.272Z,19.08
2022-10-28T23:25:43.159Z,19.17
2022-10-28T23:28:12.231Z,19.19
2022-10-28T23:30:41.083Z,19.08
2022-10-28T23:33:11.592Z,19.21
2022-10-28T23:35:42.079Z,19.24
2022-10-28T23:38:12.080Z,19.09
2022-10-28T23:40:40.929Z,19.08
2022-10-28T23:43:09.771Z,19.27
2022-10-28T23:45:38.420Z,19.25
2022-10-28T23:48:07.490Z,19.36
2022-10-28T23:50:38.180Z,19.29
2022-10-28T23:53:06.990Z,19.19
2022-10-28T23:55:36.651Z,19.14
2022-10-28T23:58:07.000Z,19.37
